createdAt,value
2023-07-25T00:01:13.750Z,36.47
2023-07-25T00:03:40.713Z,26.63
2023-07-25T00:06:08.990Z,28.35
2023-07-25T00:08:35.917Z,34.15
2023-07-25T00:11:02.839Z,27.90
2023-07-25T00:13:29.777Z,30.95
2023-07-25T00:15:56.721Z,27.92
2023-07-25T00:18:23.648Z,29.48
2023-07-25T00:20:50.539Z,26.55
2023-07-25T00:23:18.840Z,29.00
2023-07-25T00:25:45.799Z,27.27
2023-07-25T00:28:12.729Z,23.10
2023-07-25T00:30:39.635Z,18.75
2023-07-25T00:33:06.591Z,26.83
2023-07-25T00:35:33.549Z,18.30
2023-07-25T00:38:00.451Z,22.60
2023-07-25T00:40:28.721Z,23.42
2023-07-25T00:42:55.930Z,22.75
2023-07-25T00:45:22.983Z,19.40
2023-07-25T00:47:50.020Z,18.10
2023-07-25T00:50:17.052Z,18.05
2023-07-25T00:52:43.961Z,16.50
2023-07-25T00:55:10.861Z,19.55
2023-07-25T00:57:39.155Z,18.65
2023-07-25T01:00:07.527Z,20.50
2023-07-25T01:02:34.527Z,14.57
2023-07-25T01:05:01.496Z,17.45
2023-07-25T01:07:28.464Z,13.32
2023-07-25T01:09:55.380Z,17.75
2023-07-25T01:12:22.279Z,17.80
2023-07-25T01:14:50.527Z,16.60
2023-07-25T01:17:19.470Z,14.40
2023-07-25T01:19:46.838Z,15.93
2023-07-25T01:22:13.970Z,12.38
2023-07-25T01:24:44.368Z,15.35
2023-07-25T01:27:11.286Z,15.63
2023-07-25T01:29:38.172Z,13.63
2023-07-25T01:32:06.021Z,12.73
2023-07-25T01:34:32.913Z,13.70
2023-07-25T01:36:59.798Z,12.27
2023-07-25T01:39:26.717Z,15.55
2023-07-25T01:41:54.990Z,14.00
2023-07-25T01:44:21.891Z,13.60
2023-07-25T01:46:48.776Z,11.05
2023-07-25T01:49:15.691Z,10.73
2023-07-25T01:51:42.665Z,11.57
2023-07-25T01:54:09.538Z,13.70
2023-07-25T01:56:36.635Z,13.45
2023-07-25T01:59:04.874Z,13.38
2023-07-25T02:01:32.027Z,11.93
2023-07-25T02:03:59.141Z,12.50
2023-07-25T02:06:26.022Z,11.63
2023-07-25T02:08:52.932Z,10.10
2023-07-25T02:11:19.830Z,16.00
2023-07-25T02:13:46.738Z,10.45
2023-07-25T02:16:15.017Z,12.77
2023-07-25T02:18:41.910Z,9.63
2023-07-25T02:21:08.784Z,16.00
2023-07-25T02:23:35.674Z,6.93
2023-07-25T02:26:02.584Z,8.43
2023-07-25T02:28:29.523Z,5.90
2023-07-25T02:30:56.436Z,7.65
2023-07-25T02:33:24.820Z,8.57
2023-07-25T02:35:51.721Z,10.50
2023-07-25T02:38:18.992Z,6.97
2023-07-25T02:40:46.025Z,8.48
2023-07-25T02:43:12.924Z,8.30
2023-07-25T02:45:39.852Z,6.47
2023-07-25T02:48:06.984Z,8.68
2023-07-25T02:50:35.252Z,7.80
2023-07-25T02:53:02.190Z,9.93
2023-07-25T02:55:30.292Z,9.02
2023-07-25T02:57:57.188Z,9.15
2023-07-25T03:00:24.142Z,5.63
2023-07-25T03:02:51.050Z,8.20
2023-07-25T03:05:18.296Z,7.03
2023-07-25T03:07:46.548Z,6.93
2023-07-25T03:10:13.456Z,7.90
2023-07-25T03:12:40.363Z,10.95
2023-07-25T03:15:07.679Z,5.63
2023-07-25T03:17:34.603Z,7.40
2023-07-25T03:20:01.532Z,5.47
2023-07-25T03:22:28.461Z,4.45
2023-07-25T03:24:56.771Z,6.45
2023-07-25T03:27:23.759Z,5.18
2023-07-25T03:29:50.639Z,7.43
2023-07-25T03:32:17.541Z,6.22
2023-07-25T03:34:44.443Z,8.65
2023-07-25T03:37:11.359Z,5.53
2023-07-25T03:39:38.346Z,5.78
2023-07-25T03:42:07.452Z,4.72
2023-07-25T03:44:36.754Z,5.95
2023-07-25T03:47:04.639Z,5.90
2023-07-25T03:49:31.553Z,4.53
2023-07-25T03:51:58.461Z,5.68
2023-07-25T03:54:25.391Z,3.58
2023-07-25T03:56:52.278Z,5.53
2023-07-25T03:59:20.573Z,4.00
2023-07-25T04:01:47.478Z,4.88
2023-07-25T04:04:14.527Z,5.05
2023-07-25T04:06:41.459Z,4.72
2023-07-25T04:09:08.345Z,6.72
2023-07-25T04:11:35.458Z,6.00
2023-07-25T04:14:02.339Z,4.90
2023-07-25T04:16:30.693Z,3.72
2023-07-25T04:18:57.616Z,3.88
2023-07-25T04:21:24.586Z,4.57
2023-07-25T04:23:51.507Z,3.80
2023-07-25T04:26:18.424Z,4.57
2023-07-25T04:28:45.311Z,6.32
2023-07-25T04:31:12.203Z,5.63
2023-07-25T04:33:40.487Z,7.35
2023-07-25T04:36:07.405Z,3.30
2023-07-25T04:38:34.317Z,4.47
2023-07-25T04:41:01.198Z,3.47
2023-07-25T04:43:28.087Z,5.38
2023-07-25T04:45:55.387Z,5.00
2023-07-25T04:48:22.395Z,4.03
2023-07-25T04:50:50.666Z,4.20
2023-07-25T04:53:17.539Z,2.97
2023-07-25T04:55:44.492Z,3.28
2023-07-25T04:58:12.180Z,3.67
2023-07-25T05:00:39.091Z,4.78
2023-07-25T05:03:06.048Z,5.03
2023-07-25T05:05:33.026Z,5.28
2023-07-25T05:08:01.285Z,2.90
2023-07-25T05:10:28.187Z,3.47
2023-07-25T05:12:55.254Z,3.42
2023-07-25T05:15:22.653Z,3.05
2023-07-25T05:17:49.612Z,2.58
2023-07-25T05:20:16.567Z,2.25
2023-07-25T05:22:43.462Z,4.72
2023-07-25T05:25:11.747Z,3.65
2023-07-25T05:27:38.625Z,3.15
2023-07-25T05:30:06.924Z,2.95
2023-07-25T05:32:37.148Z,4.57
2023-07-25T05:35:05.042Z,3.22
2023-07-25T05:37:35.625Z,4.70
2023-07-25T05:40:02.632Z,5.63
2023-07-25T05:42:30.957Z,2.33
2023-07-25T05:44:58.409Z,2.58
2023-07-25T05:47:25.357Z,3.42
2023-07-25T05:49:52.274Z,3.20
2023-07-25T05:52:19.147Z,2.88
2023-07-25T05:54:46.155Z,2.17
2023-07-25T05:57:13.145Z,2.72
2023-07-25T05:59:41.470Z,3.30
2023-07-25T06:02:08.518Z,2.92
2023-07-25T06:04:35.425Z,4.78
2023-07-25T06:07:02.353Z,3.08
2023-07-25T06:09:29.246Z,4.03
2023-07-25T06:11:56.160Z,2.13
2023-07-25T06:14:23.059Z,2.92
2023-07-25T06:16:51.362Z,2.95
2023-07-25T06:19:18.291Z,3.97
2023-07-25T06:21:45.195Z,2.08
2023-07-25T06:24:12.072Z,2.58
2023-07-25T06:26:39.116Z,2.60
2023-07-25T06:29:06.034Z,2.40
2023-07-25T06:31:33.220Z,2.92
2023-07-25T06:34:01.764Z,2.13
2023-07-25T06:36:28.654Z,2.95
2023-07-25T06:38:55.674Z,3.10
2023-07-25T06:41:22.583Z,3.15
2023-07-25T06:43:49.483Z,2.03
2023-07-25T06:46:16.407Z,3.20
2023-07-25T06:48:43.328Z,1.77
2023-07-25T06:51:11.613Z,5.10
2023-07-25T06:53:38.566Z,3.22
2023-07-25T06:56:05.462Z,4.47
2023-07-25T06:58:32.513Z,2.08
2023-07-25T07:00:59.465Z,3.92
2023-07-25T07:03:26.468Z,3.33
2023-07-25T07:05:53.762Z,2.03
2023-07-25T07:08:22.031Z,2.25
2023-07-25T07:10:52.820Z,2.28
2023-07-25T07:13:19.770Z,3.55
2023-07-25T07:15:46.790Z,2.92
2023-07-25T07:18:13.686Z,3.22
2023-07-25T07:20:40.599Z,3.03
2023-07-25T07:23:07.617Z,3.45
2023-07-25T07:25:35.905Z,3.03
2023-07-25T07:28:02.818Z,3.20
2023-07-25T07:30:29.740Z,2.13
2023-07-25T07:32:57.157Z,2.90
2023-07-25T07:35:24.253Z,1.92
2023-07-25T07:37:51.136Z,2.72
2023-07-25T07:40:18.136Z,4.15
2023-07-25T07:42:46.418Z,2.92
2023-07-25T07:45:13.337Z,2.33
2023-07-25T07:47:40.251Z,2.38
2023-07-25T07:50:07.941Z,4.90
2023-07-25T07:52:41.965Z,2.47
2023-07-25T07:55:10.277Z,1.50
2023-07-25T07:57:39.516Z,2.17
2023-07-25T08:00:09.854Z,2.53
2023-07-25T08:02:36.758Z,2.00
2023-07-25T08:05:03.798Z,4.82
2023-07-25T08:07:30.797Z,1.95
2023-07-25T08:09:57.770Z,2.55
2023-07-25T08:12:24.782Z,2.13
2023-07-25T08:14:51.668Z,1.63
2023-07-25T08:17:19.999Z,2.38
2023-07-25T08:19:46.913Z,2.30
2023-07-25T08:22:13.904Z,1.75
2023-07-25T08:24:41.083Z,3.50
2023-07-25T08:27:08.272Z,2.25
2023-07-25T08:29:39.536Z,1.70
2023-07-25T08:32:07.853Z,2.10
2023-07-25T08:34:36.290Z,2.80
2023-07-25T08:37:03.408Z,3.75
2023-07-25T08:39:30.298Z,1.90
2023-07-25T08:41:57.169Z,2.17
2023-07-25T08:44:24.131Z,1.60
2023-07-25T08:46:52.225Z,1.70
2023-07-25T08:49:21.643Z,1.67
2023-07-25T08:51:52.691Z,2.47
2023-07-25T08:54:22.375Z,2.80
2023-07-25T08:56:49.258Z,2.22
2023-07-25T08:59:16.130Z,2.97
2023-07-25T09:01:43.231Z,2.30
2023-07-25T09:04:10.188Z,1.70
2023-07-25T09:06:37.118Z,2.03
2023-07-25T09:09:05.427Z,1.70
2023-07-25T09:11:33.217Z,2.72
2023-07-25T09:14:00.471Z,2.08
2023-07-25T09:16:27.433Z,1.85
2023-07-25T09:18:54.338Z,2.00
2023-07-25T09:21:21.282Z,2.30
2023-07-25T09:23:54.165Z,1.85
2023-07-25T09:26:24.176Z,2.53
2023-07-25T09:28:51.999Z,2.70
2023-07-25T09:31:19.470Z,2.17
2023-07-25T09:33:47.806Z,2.42
2023-07-25T09:36:14.771Z,1.70
2023-07-25T09:38:48.247Z,1.95
2023-07-25T09:41:15.219Z,1.85
2023-07-25T09:43:43.526Z,2.05
2023-07-25T09:46:10.525Z,2.22
2023-07-25T09:48:37.454Z,1.83
2023-07-25T09:51:04.462Z,1.40
2023-07-25T09:53:31.350Z,1.50
2023-07-25T09:55:58.267Z,2.38
2023-07-25T09:58:25.171Z,2.60
2023-07-25T10:00:53.528Z,2.35
2023-07-25T10:03:20.517Z,1.75
2023-07-25T10:05:47.527Z,2.20
2023-07-25T10:08:15.300Z,1.60
2023-07-25T10:10:42.247Z,1.98
2023-07-25T10:13:09.216Z,2.55
2023-07-25T10:15:36.233Z,2.28
2023-07-25T10:18:05.483Z,2.25
2023-07-25T10:20:32.395Z,3.47
2023-07-25T10:23:07.430Z,1.70
2023-07-25T10:25:34.339Z,2.08
2023-07-25T10:28:01.835Z,1.75
2023-07-25T10:30:29.555Z,2.15
2023-07-25T10:33:02.289Z,2.15
2023-07-25T10:35:48.982Z,2.38
2023-07-25T10:38:21.182Z,1.92
2023-07-25T10:40:52.829Z,2.35
2023-07-25T10:43:20.639Z,1.85
2023-07-25T10:45:51.561Z,2.10
2023-07-25T10:48:37.404Z,1.90
2023-07-25T10:51:06.577Z,2.10
2023-07-25T10:53:33.778Z,3.70
2023-07-25T10:56:13.911Z,3.70
2023-07-25T10:58:56.117Z,2.38
2023-07-25T11:01:33.220Z,3.53
2023-07-25T11:04:21.704Z,2.55
2023-07-25T11:06:50.175Z,2.22
2023-07-25T11:09:17.104Z,3.45
2023-07-25T11:11:44.669Z,2.97
2023-07-25T11:14:12.794Z,2.35
2023-07-25T11:16:40.168Z,5.07
2023-07-25T11:19:07.090Z,3.35
2023-07-25T11:21:37.836Z,3.50
2023-07-25T11:24:06.843Z,8.65
2023-07-25T11:26:33.922Z,114.10
2023-07-25T11:29:03.765Z,105.40
2023-07-25T11:31:30.906Z,78.80
2023-07-25T11:33:58.023Z,86.20
2023-07-25T11:36:24.890Z,67.55
2023-07-25T11:38:51.839Z,54.13
2023-07-25T11:41:20.116Z,42.53
2023-07-25T11:43:47.202Z,39.10
2023-07-25T11:46:15.996Z,60.65
2023-07-25T11:48:43.024Z,38.60
2023-07-25T11:51:09.992Z,25.20
2023-07-25T11:53:36.931Z,36.35
2023-07-25T11:56:04.038Z,29.33
2023-07-25T11:58:32.343Z,22.85
2023-07-25T12:00:59.259Z,28.80
2023-07-25T12:03:26.453Z,30.48
2023-07-25T12:05:53.804Z,36.45
2023-07-25T12:08:33.258Z,27.90
2023-07-25T12:11:03.299Z,23.70
2023-07-25T12:13:30.287Z,27.75
2023-07-25T12:15:58.653Z,19.05
2023-07-25T12:18:26.496Z,17.73
2023-07-25T12:20:58.712Z,16.05
2023-07-25T12:23:29.983Z,14.13
2023-07-25T12:25:57.202Z,16.65
2023-07-25T12:28:24.331Z,19.67
2023-07-25T12:30:51.286Z,12.50
2023-07-25T12:33:19.678Z,16.75
2023-07-25T12:35:46.722Z,15.60
2023-07-25T12:38:13.673Z,13.27
2023-07-25T12:40:40.572Z,12.10
2023-07-25T12:43:07.474Z,10.18
2023-07-25T12:45:34.396Z,9.90
2023-07-25T12:48:01.353Z,11.18
2023-07-25T12:50:29.641Z,8.20
2023-07-25T12:52:56.539Z,8.45
2023-07-25T12:55:23.704Z,7.45
2023-07-25T12:57:50.635Z,6.53
2023-07-25T13:00:18.064Z,4.82
2023-07-25T13:02:45.344Z,7.82
2023-07-25T13:05:12.331Z,9.45
2023-07-25T13:07:40.661Z,6.75
2023-07-25T13:10:08.507Z,6.68
2023-07-25T13:12:35.483Z,7.72
2023-07-25T13:15:02.480Z,5.80
2023-07-25T13:17:29.435Z,5.03
2023-07-25T13:19:56.381Z,7.80
2023-07-25T13:22:23.979Z,7.32
2023-07-25T13:24:53.246Z,7.40
2023-07-25T13:27:20.279Z,4.68
2023-07-25T13:29:47.220Z,6.57
2023-07-25T13:32:14.151Z,5.47
2023-07-25T13:34:41.124Z,6.93
2023-07-25T13:37:08.049Z,50.33
2023-07-25T13:39:34.962Z,20.67
2023-07-25T13:42:03.622Z,14.07
2023-07-25T13:44:30.524Z,18.08
2023-07-25T13:46:58.620Z,19.67
2023-07-25T13:49:25.604Z,12.95
2023-07-25T13:51:53.106Z,15.35
2023-07-25T13:54:20.095Z,13.65
2023-07-25T13:56:47.014Z,9.30
2023-07-25T13:59:15.341Z,11.98
2023-07-25T14:01:42.317Z,12.43
2023-07-25T14:04:09.282Z,15.32
2023-07-25T14:06:36.250Z,5.88
2023-07-25T14:09:03.197Z,15.60
2023-07-25T14:11:30.326Z,9.27
2023-07-25T14:13:57.547Z,10.10
2023-07-25T14:16:25.985Z,5.93
2023-07-25T14:18:52.936Z,11.15
2023-07-25T14:21:19.886Z,5.53
2023-07-25T14:23:46.798Z,7.78
2023-07-25T14:26:13.701Z,3.95
2023-07-25T14:28:40.618Z,8.10
2023-07-25T14:31:07.678Z,8.07
2023-07-25T14:33:36.041Z,5.47
2023-07-25T14:36:03.020Z,6.47
2023-07-25T14:38:29.955Z,6.85
2023-07-25T14:40:57.089Z,7.72
2023-07-25T14:43:24.019Z,4.43
2023-07-25T14:45:50.937Z,6.82
2023-07-25T14:48:18.021Z,5.38
2023-07-25T14:50:46.531Z,7.63
2023-07-25T14:53:13.466Z,9.60
2023-07-25T14:55:40.533Z,10.98
2023-07-25T14:58:07.459Z,12.35
2023-07-25T15:00:34.372Z,10.43
2023-07-25T15:03:01.463Z,9.32
2023-07-25T15:05:28.511Z,9.60
2023-07-25T15:07:56.766Z,10.40
2023-07-25T15:10:23.706Z,9.98
2023-07-25T15:12:50.626Z,9.25
2023-07-25T15:15:17.536Z,10.80
2023-07-25T15:17:44.546Z,13.40
2023-07-25T15:20:11.784Z,8.90
2023-07-25T15:22:38.964Z,9.57
2023-07-25T15:25:07.914Z,11.45
2023-07-25T15:27:34.817Z,13.13
2023-07-25T15:30:01.827Z,13.27
2023-07-25T15:32:28.825Z,11.18
2023-07-25T15:34:55.734Z,10.02
2023-07-25T15:37:22.668Z,9.25
2023-07-25T15:39:49.607Z,7.30
2023-07-25T15:42:17.883Z,9.10
2023-07-25T15:44:44.772Z,9.40
2023-07-25T15:47:11.712Z,8.07
2023-07-25T15:49:38.598Z,7.25
2023-07-25T15:52:06.396Z,7.65
2023-07-25T15:54:33.394Z,8.77
2023-07-25T15:57:00.345Z,8.55
2023-07-25T15:59:28.623Z,7.45
2023-07-25T16:01:55.534Z,7.97
2023-07-25T16:04:22.440Z,6.65
2023-07-25T16:06:49.354Z,12.15
2023-07-25T16:09:16.297Z,8.02
2023-07-25T16:11:43.258Z,6.75
2023-07-25T16:14:10.254Z,6.82
2023-07-25T16:16:38.669Z,7.10
2023-07-25T16:19:05.668Z,6.22
2023-07-25T16:21:32.805Z,24.90
2023-07-25T16:23:59.987Z,22.75
2023-07-25T16:26:26.927Z,22.35
2023-07-25T16:28:53.842Z,13.48
2023-07-25T16:33:52.470Z,9.90
2023-07-25T16:36:19.365Z,11.27
2023-07-25T16:38:46.311Z,7.15
2023-07-25T16:41:13.284Z,11.52
2023-07-25T16:43:40.235Z,10.88
2023-07-25T16:46:07.222Z,9.60
2023-07-25T16:48:34.200Z,6.25
2023-07-25T16:51:02.513Z,8.63
2023-07-25T16:53:29.389Z,5.68
2023-07-25T16:55:56.501Z,9.60
2023-07-25T16:58:23.481Z,13.85
2023-07-25T17:00:50.408Z,14.07
2023-07-25T17:03:17.434Z,20.15
2023-07-25T17:05:44.408Z,12.93
2023-07-25T17:08:12.689Z,8.93
2023-07-25T17:10:39.579Z,12.98
2023-07-25T17:13:06.533Z,6.20
2023-07-25T17:15:33.551Z,9.63
2023-07-25T17:18:00.533Z,7.63
2023-07-25T17:20:27.617Z,5.70
2023-07-25T17:22:54.524Z,5.53
2023-07-25T17:25:22.833Z,8.00
2023-07-25T17:27:49.764Z,4.60
2023-07-25T17:30:16.839Z,8.23
2023-07-25T17:32:43.810Z,7.07
2023-07-25T17:35:17.635Z,7.43
2023-07-25T17:37:51.151Z,5.35
2023-07-25T17:40:18.181Z,7.55
2023-07-25T17:42:46.698Z,11.85
2023-07-25T17:45:13.593Z,11.63
2023-07-25T17:47:40.536Z,13.95
2023-07-25T17:50:08.371Z,12.48
2023-07-25T17:52:35.307Z,9.20
2023-07-25T17:55:02.309Z,10.88
2023-07-25T17:57:29.218Z,10.40
2023-07-25T17:59:57.538Z,5.40
2023-07-25T18:02:25.691Z,12.18
2023-07-25T18:04:52.695Z,9.80
2023-07-25T18:07:19.619Z,11.55
2023-07-25T18:09:46.531Z,8.25
2023-07-25T18:12:13.519Z,6.45
2023-07-25T18:14:40.448Z,6.45
2023-07-25T18:17:08.913Z,7.30
2023-07-25T18:19:35.869Z,6.65
2023-07-25T18:22:02.806Z,10.27
2023-07-25T18:24:29.796Z,7.72
2023-07-25T18:26:56.703Z,6.43
2023-07-25T18:29:23.658Z,8.48
2023-07-25T18:31:50.631Z,8.02
2023-07-25T18:34:19.747Z,8.55
2023-07-25T18:36:46.652Z,8.00
2023-07-25T18:39:13.553Z,6.78
2023-07-25T18:41:40.441Z,6.05
2023-07-25T18:44:07.380Z,7.30
2023-07-25T18:46:34.684Z,10.20
2023-07-25T18:49:01.970Z,5.85
2023-07-25T18:51:30.298Z,12.85
2023-07-25T18:53:57.251Z,6.70
2023-07-25T18:56:24.168Z,6.93
2023-07-25T18:58:51.106Z,6.72
2023-07-25T19:01:18.070Z,10.30
2023-07-25T19:03:45.016Z,6.47
2023-07-25T19:06:11.912Z,7.57
2023-07-25T19:08:40.227Z,8.60
2023-07-25T19:11:07.146Z,4.10
2023-07-25T19:13:34.056Z,5.15
2023-07-25T19:16:00.952Z,6.93
2023-07-25T19:18:27.902Z,6.40
2023-07-25T19:20:54.804Z,4.15
2023-07-25T19:23:26.830Z,7.45
2023-07-25T19:25:59.162Z,5.68
2023-07-25T19:28:26.101Z,3.50
2023-07-25T19:30:53.177Z,4.82
2023-07-25T19:33:20.120Z,4.18
2023-07-25T19:35:53.271Z,4.72
2023-07-25T19:38:20.218Z,5.07
2023-07-25T19:40:47.168Z,4.80
2023-07-25T19:43:15.601Z,6.70
2023-07-25T19:45:42.497Z,6.72
2023-07-25T19:48:09.434Z,3.67
2023-07-25T19:50:36.414Z,4.22
2023-07-25T19:53:03.331Z,4.53
2023-07-25T19:55:30.322Z,5.10
2023-07-25T19:57:57.259Z,5.13
2023-07-25T20:00:25.530Z,6.03
2023-07-25T20:02:52.574Z,6.25
2023-07-25T20:05:19.781Z,6.05
2023-07-25T20:07:46.690Z,5.07
2023-07-25T20:10:13.579Z,3.50
2023-07-25T20:12:40.541Z,4.38
2023-07-25T20:15:08.872Z,5.20
2023-07-25T20:17:37.244Z,4.88
2023-07-25T20:20:05.176Z,3.70
2023-07-25T20:22:32.152Z,3.45
2023-07-25T20:24:59.106Z,4.50
2023-07-25T20:27:26.080Z,5.95
2023-07-25T20:29:53.030Z,3.15
2023-07-25T20:32:19.990Z,3.45
2023-07-25T20:34:48.363Z,44.17
2023-07-25T20:37:15.306Z,83.78
2023-07-25T20:39:42.207Z,55.33
2023-07-25T20:42:09.129Z,54.33
2023-07-25T20:44:36.064Z,42.97
2023-07-25T20:47:03.134Z,56.22
2023-07-25T20:49:30.167Z,43.50
2023-07-25T20:51:58.504Z,44.63
2023-07-25T20:54:25.412Z,43.03
2023-07-25T20:56:52.325Z,34.03
2023-07-25T20:59:19.269Z,35.05
2023-07-25T21:01:46.254Z,55.38
2023-07-25T21:04:13.239Z,93.40
2023-07-25T21:06:40.166Z,96.68
2023-07-25T21:09:08.446Z,95.25
2023-07-25T21:11:35.408Z,174.85
2023-07-25T21:14:02.363Z,163.77
2023-07-25T21:16:29.436Z,148.95
2023-07-25T21:18:56.437Z,151.50
2023-07-25T21:21:23.365Z,123.00
2023-07-25T21:23:50.272Z,92.45
2023-07-25T21:26:18.585Z,68.82
2023-07-25T21:28:45.497Z,54.08
2023-07-25T21:31:12.441Z,77.22
2023-07-25T21:33:39.337Z,81.03
2023-07-25T21:36:10.268Z,77.38
2023-07-25T21:38:37.267Z,84.63
2023-07-25T21:41:07.526Z,76.10
2023-07-25T21:43:37.197Z,69.45
2023-07-25T21:46:04.236Z,58.20
2023-07-25T21:48:31.143Z,61.35
2023-07-25T21:50:58.242Z,53.67
2023-07-25T21:53:26.653Z,51.80
2023-07-25T21:55:53.586Z,59.88
2023-07-25T21:58:20.561Z,51.03
2023-07-25T22:00:48.875Z,40.55
2023-07-25T22:03:16.201Z,48.45
2023-07-25T22:05:43.198Z,43.17
2023-07-25T22:08:10.115Z,41.85
2023-07-25T22:10:37.031Z,33.97
2023-07-25T22:13:03.986Z,39.05
2023-07-25T22:15:31.310Z,36.10
2023-07-25T22:17:59.685Z,44.22
2023-07-25T22:20:35.004Z,37.30
2023-07-25T22:23:05.440Z,36.28
2023-07-25T22:25:32.358Z,31.13
2023-07-25T22:27:59.275Z,32.92
2023-07-25T22:30:26.228Z,30.42
2023-07-25T22:32:53.165Z,32.78
2023-07-25T22:35:21.599Z,30.17
2023-07-25T22:37:58.085Z,29.70
2023-07-25T22:40:25.057Z,25.58
2023-07-25T22:42:52.028Z,24.75
2023-07-25T22:45:18.918Z,24.45
2023-07-25T22:47:45.874Z,21.92
2023-07-25T22:50:12.868Z,25.40
2023-07-25T22:52:41.349Z,23.50
2023-07-25T22:55:08.797Z,24.38
2023-07-25T22:57:35.719Z,24.38
2023-07-25T23:00:02.791Z,25.17
2023-07-25T23:02:29.941Z,22.02
2023-07-25T23:04:56.890Z,25.85
2023-07-25T23:07:23.806Z,21.02
2023-07-25T23:09:52.098Z,24.15
2023-07-25T23:12:19.016Z,20.88
2023-07-25T23:14:45.918Z,19.08
2023-07-25T23:17:12.821Z,17.60
2023-07-25T23:19:39.694Z,17.35
2023-07-25T23:22:06.658Z,16.73
2023-07-25T23:24:33.641Z,18.35
2023-07-25T23:27:01.935Z,19.50
2023-07-25T23:29:28.817Z,21.15
2023-07-25T23:31:55.705Z,18.42
2023-07-25T23:34:23.312Z,20.55
2023-07-25T23:36:50.241Z,15.07
2023-07-25T23:39:17.168Z,16.65
2023-07-25T23:41:44.037Z,17.98
2023-07-25T23:44:12.423Z,16.52
2023-07-25T23:46:39.487Z,18.25
2023-07-25T23:49:06.606Z,16.77
2023-07-25T23:51:33.606Z,17.38
2023-07-25T23:54:00.517Z,16.13
2023-07-25T23:56:27.442Z,15.13
2023-07-25T23:58:54.387Z,18.15
